Terminal Aerodrome Forecast
Issued by NWS Greer, SC

Home | Current Version | Previous Version | Text Only | Print | Product List | Glossary On
Versions: 1 2 3 4 5 6 7 8 9 10 11 12 13 14
000
FTUS42 KGSP 301142
TAFAVL
TAF
KAVL 301142Z 3012/0112 00000KT P6SM SCT100 BKN250
     FM301700 15008KT P6SM VCSH SCT040 BKN100
     FM302100 16007KT P6SM -SHRA OVC050
      TEMPO 3021/0101 4SM TSRA OVC025CB
     FM010100 VRB03KT P6SM -SHRA OVC025 PROB30 0101/0107 2SM TSRA
      OVC007CB
     FM010700 00000KT 3SM -SHRA OVC007=

USA.gov is the U.S. government's official web portal to all federal, state and local government web resources and services.